Terminal Aerodrome Forecast
Issued by NWS

Home | Current Version | Previous Version | Text Only | Print | Product List | Glossary On
Versions: 1 2 3 4 5 6 7 8 9 10 11 12 13 14 15 16 17
832
FTUS43 KIND 251725
TAFLAF
TAF
KLAF 251725Z 2518/2618 14003KT P6SM SCT050 SCT200
     FM260300 20007KT P6SM VCTS SCT050CB
     FM260700 29007KT P6SM -TSRA OVC040CB
     FM261000 27005KT 5SM BR VCSH OVC020
     FM261430 28009KT P6SM SCT020 SCT250=

USA.gov is the U.S. government's official web portal to all federal, state and local government web resources and services.